createdAt,value
2023-05-19T00:01:25.091Z,12.55
2023-05-19T00:03:55.146Z,12.73
2023-05-19T00:06:27.534Z,12.73
2023-05-19T00:09:09.422Z,12.63
2023-05-19T00:11:39.194Z,12.62
2023-05-19T00:14:09.523Z,12.57
2023-05-19T00:16:38.127Z,12.62
2023-05-19T00:19:06.701Z,12.58
2023-05-19T00:21:34.466Z,12.26
2023-05-19T00:24:01.965Z,12.47
2023-05-19T00:26:29.586Z,12.48
2023-05-19T00:28:58.933Z,12.33
2023-05-19T00:31:26.545Z,12.35
2023-05-19T00:33:54.106Z,12.28
2023-05-19T00:36:21.935Z,12.29
2023-05-19T00:38:51.368Z,12.22
2023-05-19T00:41:18.919Z,12.22
2023-05-19T00:43:46.793Z,12.18
2023-05-19T00:46:14.310Z,12.19
2023-05-19T00:48:44.753Z,12.13
2023-05-19T00:51:16.849Z,12.12
2023-05-19T00:53:49.317Z,12.11
2023-05-19T00:56:18.467Z,12.05
2023-05-19T00:58:46.692Z,11.71
2023-05-19T01:01:17.231Z,12.02
2023-05-19T01:03:47.217Z,11.97
2023-05-19T01:06:15.347Z,11.95
2023-05-19T01:08:42.853Z,11.97
2023-05-19T01:11:10.872Z,11.93
2023-05-19T01:13:41.115Z,11.90
2023-05-19T01:16:18.976Z,11.89
2023-05-19T01:19:06.056Z,11.85
2023-05-19T01:22:01.182Z,11.83
2023-05-19T01:24:32.408Z,11.83
2023-05-19T01:27:32.178Z,11.77
2023-05-19T01:30:23.354Z,11.77
2023-05-19T01:32:53.960Z,11.48
2023-05-19T01:35:26.294Z,11.73
2023-05-19T01:37:56.744Z,11.71
2023-05-19T01:40:26.477Z,11.67
2023-05-19T01:42:57.824Z,11.66
2023-05-19T01:45:29.094Z,11.40
2023-05-19T01:47:59.435Z,11.59
2023-05-19T01:50:27.623Z,11.58
2023-05-19T01:52:55.711Z,11.57
2023-05-19T01:55:24.107Z,11.45
2023-05-19T01:58:33.035Z,11.35
2023-05-19T02:01:42.900Z,11.37
2023-05-19T02:04:28.552Z,11.37
2023-05-19T02:07:10.004Z,11.26
2023-05-19T02:10:06.665Z,11.25
2023-05-19T02:12:40.166Z,11.26
2023-05-19T02:15:12.180Z,11.22
2023-05-19T02:17:47.893Z,11.17
2023-05-19T02:20:16.988Z,11.13
2023-05-19T02:22:45.379Z,11.07
2023-05-19T02:25:14.235Z,11.02
2023-05-19T02:27:42.492Z,11.02
2023-05-19T02:30:10.693Z,10.88
2023-05-19T02:32:38.281Z,10.98
2023-05-19T02:35:06.451Z,10.98
2023-05-19T02:37:35.398Z,10.94
2023-05-19T02:40:02.984Z,10.89
2023-05-19T02:42:31.443Z,10.82
2023-05-19T02:45:00.564Z,10.86
2023-05-19T02:47:28.305Z,10.91
2023-05-19T02:49:55.936Z,10.81
2023-05-19T02:52:23.707Z,10.70
2023-05-19T02:54:51.484Z,10.71
2023-05-19T02:57:19.091Z,10.67
2023-05-19T02:59:47.056Z,10.68
2023-05-19T03:02:14.607Z,10.64
2023-05-19T03:04:43.140Z,10.65
2023-05-19T03:07:11.026Z,10.53
2023-05-19T03:09:38.582Z,10.58
2023-05-19T03:12:07.682Z,10.64
2023-05-19T03:14:37.743Z,10.64
2023-05-19T03:17:07.848Z,10.60
2023-05-19T03:19:36.144Z,10.60
2023-05-19T03:22:03.956Z,10.62
2023-05-19T03:24:31.681Z,10.64
2023-05-19T03:26:59.531Z,10.66
2023-05-19T03:29:27.114Z,10.69
2023-05-19T03:31:55.176Z,10.66
2023-05-19T03:34:23.017Z,10.67
2023-05-19T03:36:50.956Z,10.68
2023-05-19T03:39:18.552Z,10.70
2023-05-19T03:41:46.535Z,10.71
2023-05-19T03:44:14.123Z,10.71
2023-05-19T03:46:41.658Z,10.73
2023-05-19T03:49:09.937Z,10.70
2023-05-19T03:51:39.413Z,10.73
2023-05-19T03:54:07.295Z,10.60
2023-05-19T03:56:39.406Z,10.78
2023-05-19T03:59:10.488Z,10.69
2023-05-19T04:01:38.305Z,10.78
2023-05-19T04:04:06.181Z,10.70
2023-05-19T04:06:34.002Z,10.70
2023-05-19T04:09:02.711Z,10.72
2023-05-19T04:11:30.559Z,10.57
2023-05-19T04:13:58.689Z,10.87
2023-05-19T04:16:26.430Z,10.93
2023-05-19T04:18:54.365Z,10.87
2023-05-19T04:21:22.465Z,10.87
2023-05-19T04:23:50.024Z,10.75
2023-05-19T04:26:19.307Z,11.16
2023-05-19T04:28:48.313Z,11.12
2023-05-19T04:31:15.871Z,11.09
2023-05-19T04:33:43.960Z,11.28
2023-05-19T04:36:11.791Z,11.25
2023-05-19T04:38:40.303Z,11.36
2023-05-19T04:41:12.269Z,11.45
2023-05-19T04:43:41.837Z,11.57
2023-05-19T04:46:14.163Z,11.69
2023-05-19T04:48:42.821Z,11.37
2023-05-19T04:51:10.668Z,11.40
2023-05-19T04:53:40.263Z,11.34
2023-05-19T04:56:09.722Z,11.48
2023-05-19T04:58:39.705Z,11.27
2023-05-19T05:01:09.686Z,11.46
2023-05-19T05:03:37.889Z,11.55
2023-05-19T05:06:06.578Z,11.68
2023-05-19T05:08:34.255Z,11.87
2023-05-19T05:11:02.287Z,11.81
2023-05-19T05:13:30.083Z,11.82
2023-05-19T05:15:58.812Z,12.04
2023-05-19T05:18:27.186Z,11.70
2023-05-19T05:20:55.215Z,11.92
2023-05-19T05:23:23.551Z,11.87
2023-05-19T05:25:51.935Z,12.20
2023-05-19T05:28:19.611Z,12.40
2023-05-19T05:30:47.587Z,12.25
2023-05-19T05:33:15.547Z,12.39
2023-05-19T05:35:43.074Z,12.25
2023-05-19T05:38:11.601Z,12.33
2023-05-19T05:40:39.645Z,12.37
2023-05-19T05:43:08.212Z,12.67
2023-05-19T05:45:36.065Z,12.61
2023-05-19T05:48:04.741Z,12.77
2023-05-19T05:50:32.866Z,12.59
2023-05-19T05:53:01.915Z,13.05
2023-05-19T05:55:30.515Z,12.94
2023-05-19T05:58:02.197Z,12.78
2023-05-19T06:00:30.444Z,12.91
2023-05-19T06:02:59.276Z,13.03
2023-05-19T06:05:27.161Z,13.23
2023-05-19T06:07:55.404Z,12.83
2023-05-19T06:10:23.853Z,13.02
2023-05-19T06:12:51.877Z,13.03
2023-05-19T06:15:19.400Z,13.34
2023-05-19T06:17:47.333Z,13.35
2023-05-19T06:20:14.997Z,13.72
2023-05-19T06:22:42.616Z,13.34
2023-05-19T06:25:10.563Z,13.40
2023-05-19T06:27:38.143Z,13.72
2023-05-19T06:30:08.624Z,13.86
2023-05-19T06:32:36.998Z,13.80
2023-05-19T06:35:05.087Z,14.13
2023-05-19T06:37:32.722Z,14.24
2023-05-19T06:40:00.719Z,14.30
2023-05-19T06:42:28.336Z,14.59
2023-05-19T06:44:57.716Z,14.08
2023-05-19T06:47:27.530Z,14.55
2023-05-19T06:49:55.654Z,14.78
2023-05-19T06:52:23.843Z,15.11
2023-05-19T06:54:51.805Z,15.10
2023-05-19T06:57:19.328Z,14.99
2023-05-19T06:59:46.914Z,15.01
2023-05-19T07:02:15.169Z,14.72
2023-05-19T07:04:43.224Z,14.87
2023-05-19T07:07:12.258Z,14.98
2023-05-19T07:09:40.235Z,14.39
2023-05-19T07:12:08.683Z,14.93
2023-05-19T07:14:37.484Z,15.22
2023-05-19T07:17:05.455Z,15.23
2023-05-19T07:19:33.064Z,15.25
2023-05-19T07:22:00.811Z,15.37
2023-05-19T07:24:28.624Z,15.42
2023-05-19T07:26:57.416Z,15.85
2023-05-19T07:29:26.255Z,15.68
2023-05-19T07:31:57.870Z,15.92
2023-05-19T07:34:25.753Z,15.46
2023-05-19T07:36:53.380Z,15.45
2023-05-19T07:39:21.372Z,15.98
2023-05-19T07:41:52.815Z,15.89
2023-05-19T07:44:20.852Z,15.74
2023-05-19T07:46:48.410Z,16.09
2023-05-19T07:49:15.874Z,15.75
2023-05-19T07:51:43.666Z,16.23
2023-05-19T07:54:11.255Z,16.17
2023-05-19T07:56:38.811Z,16.54
2023-05-19T07:59:08.015Z,16.29
2023-05-19T08:01:35.762Z,15.86
2023-05-19T08:04:04.224Z,16.54
2023-05-19T08:06:32.113Z,16.93
2023-05-19T08:08:59.706Z,17.00
2023-05-19T08:11:27.651Z,16.89
2023-05-19T08:13:55.187Z,16.62
2023-05-19T08:16:22.875Z,16.86
2023-05-19T08:18:50.730Z,16.84
2023-05-19T08:21:18.340Z,17.25
2023-05-19T08:23:45.842Z,16.94
2023-05-19T08:26:13.865Z,17.46
2023-05-19T08:28:41.436Z,17.36
2023-05-19T08:31:09.136Z,17.68
2023-05-19T08:33:37.010Z,17.76
2023-05-19T08:36:05.066Z,18.09
2023-05-19T08:38:32.639Z,17.63
2023-05-19T08:41:00.520Z,17.69
2023-05-19T08:43:28.242Z,17.65
2023-05-19T08:45:55.941Z,18.11
2023-05-19T08:48:24.120Z,17.82
2023-05-19T08:51:18.049Z,17.83
2023-05-19T08:53:51.126Z,18.35
2023-05-19T08:56:22.631Z,18.73
2023-05-19T08:58:51.588Z,18.38
2023-05-19T09:01:20.459Z,18.73
2023-05-19T09:03:50.034Z,18.09
2023-05-19T09:06:18.225Z,18.50
2023-05-19T09:08:47.098Z,18.72
2023-05-19T09:11:14.813Z,18.42
2023-05-19T09:13:42.602Z,18.20
2023-05-19T09:16:11.836Z,18.41
2023-05-19T09:18:40.999Z,18.38
2023-05-19T09:21:11.179Z,18.46
2023-05-19T09:23:38.796Z,18.51
2023-05-19T09:26:07.703Z,18.65
2023-05-19T09:28:38.021Z,18.71
2023-05-19T09:31:10.913Z,18.90
2023-05-19T09:33:42.845Z,18.44
2023-05-19T09:36:12.589Z,18.39
2023-05-19T09:38:40.652Z,18.80
2023-05-19T09:41:09.280Z,19.21
2023-05-19T09:43:36.944Z,19.28
2023-05-19T09:46:12.162Z,19.45
2023-05-19T09:48:42.554Z,20.13
2023-05-19T09:51:11.027Z,19.82
2023-05-19T09:53:39.166Z,19.72
2023-05-19T09:56:08.838Z,19.15
2023-05-19T09:58:37.519Z,19.06
2023-05-19T10:01:05.708Z,19.47
2023-05-19T10:03:34.243Z,19.35
2023-05-19T10:06:04.045Z,19.17
2023-05-19T10:08:33.591Z,19.27
2023-05-19T10:11:01.921Z,19.98
2023-05-19T10:13:30.751Z,19.97
2023-05-19T10:16:00.039Z,19.96
2023-05-19T10:18:29.672Z,20.02
2023-05-19T10:20:58.278Z,19.89
2023-05-19T10:23:26.914Z,19.91
2023-05-19T10:25:59.098Z,19.53
2023-05-19T10:28:33.666Z,19.31
2023-05-19T10:31:05.071Z,19.18
2023-05-19T10:33:59.664Z,18.98
2023-05-19T10:36:31.094Z,19.03
2023-05-19T10:39:16.697Z,19.27
2023-05-19T10:42:03.759Z,19.04
2023-05-19T10:44:34.200Z,19.04
2023-05-19T10:47:02.369Z,19.37
2023-05-19T10:49:35.817Z,19.03
2023-05-19T10:52:04.302Z,19.16
2023-05-19T10:54:47.395Z,19.30
2023-05-19T10:57:19.238Z,19.17
2023-05-19T10:59:47.293Z,19.48
2023-05-19T11:02:42.428Z,19.65
2023-05-19T11:05:20.401Z,20.07
2023-05-19T11:08:06.166Z,20.17
2023-05-19T11:10:34.197Z,20.38
2023-05-19T11:13:06.135Z,20.23
2023-05-19T11:15:39.947Z,20.47
2023-05-19T11:18:07.964Z,20.86
2023-05-19T11:20:39.191Z,20.97
2023-05-19T11:23:08.894Z,20.75
2023-05-19T11:25:44.874Z,20.63
2023-05-19T11:28:13.689Z,20.64
2023-05-19T11:30:43.704Z,20.59
2023-05-19T11:33:13.503Z,20.89
2023-05-19T11:35:42.852Z,20.78
2023-05-19T11:38:11.308Z,21.65
2023-05-19T11:40:39.360Z,21.34
2023-05-19T11:43:07.322Z,21.64
2023-05-19T11:45:35.341Z,21.26
2023-05-19T11:48:03.873Z,21.22
2023-05-19T11:50:32.769Z,21.64
2023-05-19T11:53:01.382Z,21.91
2023-05-19T11:55:29.647Z,21.93
2023-05-19T11:58:05.105Z,22.12
2023-05-19T12:00:41.649Z,22.28
2023-05-19T12:03:10.565Z,22.39
2023-05-19T12:05:44.919Z,22.58
2023-05-19T12:08:13.070Z,22.45
2023-05-19T12:10:41.096Z,22.48
2023-05-19T12:13:09.992Z,22.42
2023-05-19T12:15:39.134Z,22.73
2023-05-19T12:18:07.378Z,22.09
2023-05-19T12:20:36.161Z,21.66
2023-05-19T12:23:05.152Z,21.03
2023-05-19T12:25:33.149Z,21.58
2023-05-19T12:28:05.111Z,21.85
2023-05-19T12:30:34.709Z,21.93
2023-05-19T12:33:03.185Z,22.35
2023-05-19T12:35:36.321Z,22.91
2023-05-19T12:38:05.128Z,22.71
2023-05-19T12:40:36.623Z,22.72
2023-05-19T12:43:05.460Z,22.24
2023-05-19T12:45:37.295Z,22.41
2023-05-19T12:48:06.740Z,22.21
2023-05-19T12:50:35.024Z,22.39
2023-05-19T12:53:02.933Z,22.91
2023-05-19T12:55:30.838Z,23.53
2023-05-19T12:57:58.703Z,23.04
2023-05-19T13:00:28.970Z,23.36
2023-05-19T13:03:05.830Z,22.87
2023-05-19T13:05:37.187Z,23.31
2023-05-19T13:08:09.858Z,23.25
2023-05-19T13:10:39.004Z,23.41
2023-05-19T13:13:07.774Z,23.33
2023-05-19T13:15:38.730Z,23.69
2023-05-19T13:18:09.120Z,24.01
2023-05-19T13:20:38.854Z,24.04
2023-05-19T13:23:06.840Z,23.25
2023-05-19T13:25:34.611Z,23.48
2023-05-19T13:28:05.676Z,23.45
2023-05-19T13:30:38.620Z,23.58
2023-05-19T13:33:06.776Z,23.90
2023-05-19T13:35:37.598Z,24.14
2023-05-19T13:38:12.576Z,24.11
2023-05-19T13:40:40.644Z,23.96
2023-05-19T13:43:09.080Z,24.36
2023-05-19T13:45:36.987Z,24.25
2023-05-19T13:48:06.937Z,23.86
2023-05-19T13:50:34.747Z,24.77
2023-05-19T13:53:02.298Z,24.96
2023-05-19T13:55:29.867Z,24.67
2023-05-19T13:57:58.190Z,24.62
2023-05-19T14:00:25.892Z,23.39
2023-05-19T14:02:53.703Z,24.26
2023-05-19T14:05:21.323Z,23.95
2023-05-19T14:07:48.824Z,24.21
2023-05-19T14:10:16.640Z,24.04
2023-05-19T14:13:02.419Z,24.94
2023-05-19T14:15:37.831Z,24.71
2023-05-19T14:18:06.855Z,24.54
2023-05-19T14:20:35.165Z,23.97
2023-05-19T14:23:03.096Z,23.43
2023-05-19T14:25:30.737Z,22.75
2023-05-19T14:27:58.608Z,23.23
2023-05-19T14:30:26.153Z,23.37
2023-05-19T14:32:53.892Z,23.92
2023-05-19T14:35:22.743Z,24.78
2023-05-19T14:37:51.257Z,24.84
2023-05-19T14:40:19.016Z,24.90
2023-05-19T14:42:46.819Z,23.93
2023-05-19T14:45:15.049Z,23.79
2023-05-19T14:47:42.608Z,23.63
2023-05-19T14:50:11.522Z,24.34
2023-05-19T14:52:39.181Z,24.69
2023-05-19T14:55:07.156Z,24.74
2023-05-19T14:57:34.913Z,25.25
2023-05-19T15:00:02.405Z,25.06
2023-05-19T15:02:30.162Z,25.08
2023-05-19T15:04:58.000Z,24.45
2023-05-19T15:07:25.502Z,23.84
2023-05-19T15:09:53.559Z,23.86
2023-05-19T15:12:21.333Z,23.76
2023-05-19T15:14:48.822Z,23.89
2023-05-19T15:17:16.434Z,23.60
2023-05-19T15:19:44.553Z,23.84
2023-05-19T15:22:12.071Z,24.15
2023-05-19T15:24:41.188Z,24.10
2023-05-19T15:27:09.180Z,24.01
2023-05-19T15:29:36.858Z,24.14
2023-05-19T15:32:04.788Z,23.94
2023-05-19T15:34:32.837Z,23.90
2023-05-19T15:37:00.440Z,23.88
2023-05-19T15:39:30.406Z,23.89
2023-05-19T15:41:58.095Z,24.09
2023-05-19T15:44:28.232Z,24.03
2023-05-19T15:46:56.439Z,23.77
2023-05-19T15:49:25.287Z,23.28
2023-05-19T15:51:52.773Z,23.11
2023-05-19T15:54:20.460Z,22.83
2023-05-19T15:56:48.222Z,22.54
2023-05-19T15:59:15.823Z,22.62
2023-05-19T16:01:43.368Z,22.51
2023-05-19T16:04:11.273Z,22.36
2023-05-19T16:06:38.930Z,22.19
2023-05-19T16:09:06.397Z,21.82
2023-05-19T16:11:34.302Z,21.51
2023-05-19T16:14:01.746Z,21.12
2023-05-19T16:16:29.305Z,20.92
2023-05-19T16:18:57.103Z,20.33
2023-05-19T16:21:24.605Z,20.02
2023-05-19T16:23:52.190Z,19.96
2023-05-19T16:26:20.214Z,19.76
2023-05-19T16:28:47.789Z,19.72
2023-05-19T16:31:15.274Z,19.63
2023-05-19T16:33:43.052Z,19.22
2023-05-19T16:36:10.856Z,19.16
2023-05-19T16:38:38.326Z,18.93
2023-05-19T16:41:06.944Z,19.13
2023-05-19T16:43:35.967Z,19.11
2023-05-19T16:46:04.610Z,19.04
2023-05-19T16:48:32.468Z,18.86
2023-05-19T16:51:00.044Z,18.93
2023-05-19T16:53:27.683Z,18.96
2023-05-19T16:55:55.565Z,18.97
2023-05-19T16:58:23.064Z,18.99
2023-05-19T17:00:53.408Z,19.00
2023-05-19T17:03:21.403Z,18.99
2023-05-19T17:05:48.925Z,18.75
2023-05-19T17:08:16.644Z,18.71
2023-05-19T17:10:44.923Z,18.67
2023-05-19T17:13:12.939Z,18.74
2023-05-19T17:15:42.863Z,18.68
2023-05-19T17:18:12.687Z,18.73
2023-05-19T17:20:40.342Z,18.73
2023-05-19T17:23:08.283Z,18.72
2023-05-19T17:25:36.318Z,18.77
2023-05-19T17:28:03.922Z,18.68
2023-05-19T17:30:31.676Z,18.76
2023-05-19T17:32:59.726Z,18.78
2023-05-19T17:35:28.598Z,18.71
2023-05-19T17:37:57.910Z,18.69
2023-05-19T17:40:26.021Z,18.67
2023-05-19T17:42:53.539Z,18.42
2023-05-19T17:45:21.138Z,18.64
2023-05-19T17:47:48.926Z,18.39
2023-05-19T17:50:16.607Z,18.52
2023-05-19T17:52:44.541Z,18.51
2023-05-19T17:55:12.864Z,18.19
2023-05-19T17:57:42.930Z,18.23
2023-05-19T18:00:11.384Z,18.47
2023-05-19T18:02:39.799Z,18.38
2023-05-19T18:05:08.346Z,18.42
2023-05-19T18:07:39.461Z,18.39
2023-05-19T18:10:08.951Z,18.38
2023-05-19T18:12:36.576Z,18.31
2023-05-19T18:15:04.450Z,18.26
2023-05-19T18:17:32.505Z,18.20
2023-05-19T18:20:00.061Z,18.18
2023-05-19T18:22:27.510Z,18.12
2023-05-19T18:24:55.412Z,18.10
2023-05-19T18:27:22.925Z,18.10
2023-05-19T18:29:50.344Z,18.09
2023-05-19T18:32:18.158Z,18.07
2023-05-19T18:34:45.820Z,18.03
2023-05-19T18:37:13.252Z,17.97
2023-05-19T18:39:41.150Z,17.97
2023-05-19T18:42:08.800Z,17.96
2023-05-19T18:44:36.379Z,17.97
2023-05-19T18:47:04.256Z,17.94
2023-05-19T18:49:31.946Z,17.89
2023-05-19T18:51:59.458Z,17.75
2023-05-19T18:54:27.252Z,17.73
2023-05-19T18:56:54.867Z,17.74
2023-05-19T18:59:23.724Z,17.67
2023-05-19T19:01:54.991Z,17.64
2023-05-19T19:04:22.582Z,17.61
2023-05-19T19:06:51.247Z,17.57
2023-05-19T19:09:19.265Z,17.28
2023-05-19T19:11:46.839Z,17.22
2023-05-19T19:14:14.380Z,17.35
2023-05-19T19:16:42.172Z,17.25
2023-05-19T19:19:10.200Z,16.98
2023-05-19T19:21:37.814Z,17.18
2023-05-19T19:24:05.894Z,17.12
2023-05-19T19:26:33.781Z,17.08
2023-05-19T19:29:01.302Z,16.99
2023-05-19T19:31:29.128Z,16.95
2023-05-19T19:34:03.583Z,16.64
2023-05-19T19:36:32.066Z,16.89
2023-05-19T19:38:59.673Z,16.82
2023-05-19T19:41:29.710Z,16.76
2023-05-19T19:43:57.548Z,16.70
2023-05-19T19:46:25.148Z,16.59
2023-05-19T19:48:52.819Z,16.53
2023-05-19T19:51:20.608Z,16.50
2023-05-19T19:53:48.091Z,16.22
2023-05-19T19:56:15.606Z,16.23
2023-05-19T19:58:43.572Z,16.46
2023-05-19T20:01:11.316Z,16.37
2023-05-19T20:03:39.188Z,16.35
2023-05-19T20:06:07.672Z,16.31
2023-05-19T20:08:35.137Z,16.24
2023-05-19T20:11:02.942Z,16.16
2023-05-19T20:13:32.083Z,16.21
2023-05-19T20:16:01.016Z,16.12
2023-05-19T20:18:29.981Z,16.09
2023-05-19T20:20:57.640Z,16.07
2023-05-19T20:23:25.213Z,15.79
2023-05-19T20:26:10.305Z,15.98
2023-05-19T20:28:39.762Z,15.92
2023-05-19T20:31:07.716Z,15.86
2023-05-19T20:33:35.345Z,15.82
2023-05-19T20:36:02.873Z,15.82
2023-05-19T20:38:30.630Z,15.66
2023-05-19T20:40:58.140Z,15.72
2023-05-19T20:43:25.642Z,15.65
2023-05-19T20:45:53.435Z,15.61
2023-05-19T20:48:20.997Z,15.58
2023-05-19T20:50:48.515Z,15.58
2023-05-19T20:53:16.277Z,15.55
2023-05-19T20:55:47.044Z,15.41
2023-05-19T20:58:14.705Z,15.36
2023-05-19T21:00:42.474Z,15.36
2023-05-19T21:03:10.008Z,15.29
2023-05-19T21:05:37.615Z,15.33
2023-05-19T21:08:05.523Z,15.28
2023-05-19T21:10:33.135Z,15.03
2023-05-19T21:13:00.924Z,14.98
2023-05-19T21:15:28.740Z,14.96
2023-05-19T21:17:56.282Z,14.98
2023-05-19T21:20:23.990Z,14.93
2023-05-19T21:22:51.889Z,14.86
2023-05-19T21:25:19.352Z,14.86
2023-05-19T21:27:47.509Z,14.80
2023-05-19T21:30:15.490Z,14.41
2023-05-19T21:32:43.215Z,14.47
2023-05-19T21:35:10.813Z,14.32
2023-05-19T21:37:38.509Z,14.25
2023-05-19T21:40:08.073Z,14.39
2023-05-19T21:42:35.894Z,14.26
2023-05-19T21:45:04.017Z,14.04
2023-05-19T21:47:31.824Z,13.97
2023-05-19T21:49:59.315Z,13.91
2023-05-19T21:52:27.123Z,13.95
2023-05-19T21:54:56.131Z,13.95
2023-05-19T21:57:23.619Z,13.91
2023-05-19T21:59:51.522Z,13.96
2023-05-19T22:02:18.954Z,13.58
2023-05-19T22:04:46.733Z,13.82
2023-05-19T22:07:14.235Z,13.83
2023-05-19T22:09:41.704Z,13.88
2023-05-19T22:12:09.560Z,13.67
2023-05-19T22:14:37.037Z,13.97
2023-05-19T22:17:04.768Z,13.96
2023-05-19T22:19:32.691Z,13.63
2023-05-19T22:22:12.718Z,13.87
2023-05-19T22:24:41.554Z,13.88
2023-05-19T22:27:09.048Z,13.88
2023-05-19T22:29:38.714Z,13.96
2023-05-19T22:32:11.757Z,14.05
2023-05-19T22:34:39.579Z,14.13
2023-05-19T22:37:07.405Z,14.18
2023-05-19T22:39:34.918Z,14.17
2023-05-19T22:42:02.671Z,14.19
2023-05-19T22:44:30.546Z,14.03
2023-05-19T22:46:58.028Z,13.83
2023-05-19T22:49:27.369Z,14.10
2023-05-19T22:51:55.192Z,14.02
2023-05-19T22:54:22.715Z,13.78
2023-05-19T22:56:50.348Z,14.03
2023-05-19T22:59:18.257Z,13.99
2023-05-19T23:01:46.813Z,14.01
2023-05-19T23:04:14.740Z,13.99
2023-05-19T23:06:42.653Z,13.96
2023-05-19T23:09:10.152Z,13.84
2023-05-19T23:11:37.642Z,13.84
2023-05-19T23:14:05.692Z,13.87
2023-05-19T23:16:33.283Z,13.78
2023-05-19T23:19:01.022Z,13.70
2023-05-19T23:21:30.303Z,13.76
2023-05-19T23:23:57.895Z,13.75
2023-05-19T23:26:26.378Z,13.72
2023-05-19T23:28:54.183Z,13.65
2023-05-19T23:31:21.772Z,13.65
2023-05-19T23:33:49.454Z,13.61
2023-05-19T23:36:17.851Z,13.33
2023-05-19T23:38:45.624Z,13.58
2023-05-19T23:41:13.213Z,13.51
2023-05-19T23:43:41.132Z,13.62
2023-05-19T23:46:08.796Z,13.64
2023-05-19T23:48:36.714Z,13.65
2023-05-19T23:51:04.711Z,13.66
2023-05-19T23:53:32.289Z,13.41
2023-05-19T23:55:59.843Z,13.73
2023-05-19T23:58:27.824Z,13.43
